createdAt,value
2018-08-03T00:00:14.601Z,0.00
2018-08-03T00:01:14.633Z,0.00
2018-08-03T00:02:14.667Z,0.00
2018-08-03T00:03:14.850Z,0.00
2018-08-03T00:04:14.732Z,0.00
2018-08-03T00:05:14.766Z,0.00
2018-08-03T00:06:14.796Z,0.00
2018-08-03T00:07:14.831Z,0.00
2018-08-03T00:08:14.862Z,0.00
2018-08-03T00:09:14.895Z,0.00
2018-08-03T00:10:14.934Z,0.00
2018-08-03T00:11:14.962Z,0.00
2018-08-03T00:12:14.995Z,0.00
2018-08-03T00:13:15.031Z,0.00
2018-08-03T00:14:15.061Z,0.00
2018-08-03T00:15:15.092Z,0.00
2018-08-03T00:16:15.129Z,0.00
2018-08-03T00:17:15.165Z,0.00
2018-08-03T00:18:15.193Z,0.00
2018-08-03T00:19:15.227Z,0.00
2018-08-03T00:20:15.261Z,0.00
2018-08-03T00:21:15.295Z,0.00
2018-08-03T00:22:15.325Z,0.00
2018-08-03T00:23:15.359Z,0.00
2018-08-03T00:24:15.392Z,0.00
2018-08-03T00:25:15.424Z,0.00
2018-08-03T00:26:15.461Z,0.00
2018-08-03T00:27:15.490Z,0.00
2018-08-03T00:28:15.526Z,0.00
2018-08-03T00:29:15.554Z,0.00
2018-08-03T00:30:15.590Z,0.00
2018-08-03T00:31:15.626Z,0.00
2018-08-03T00:32:15.656Z,0.00
2018-08-03T00:33:15.687Z,0.00
2018-08-03T00:34:15.719Z,0.00
2018-08-03T00:35:15.751Z,0.00
2018-08-03T00:36:15.788Z,0.00
2018-08-03T00:37:15.818Z,0.00
2018-08-03T00:38:15.857Z,0.00
2018-08-03T00:39:15.885Z,0.00
2018-08-03T00:40:15.918Z,0.00
2018-08-03T00:41:15.952Z,0.00
2018-08-03T00:42:15.985Z,0.00
2018-08-03T00:43:16.018Z,0.00
2018-08-03T00:44:16.050Z,0.00
2018-08-03T00:45:16.081Z,0.00
2018-08-03T00:46:16.116Z,0.00
2018-08-03T00:47:16.146Z,0.00
2018-08-03T00:48:16.179Z,0.00
2018-08-03T00:49:16.215Z,0.00
2018-08-03T00:50:16.245Z,0.00
2018-08-03T00:51:16.280Z,0.00
2018-08-03T00:52:16.313Z,0.00
2018-08-03T00:53:16.346Z,0.00
2018-08-03T00:54:16.376Z,0.00
2018-08-03T00:55:16.411Z,0.00
2018-08-03T00:56:16.445Z,0.00
2018-08-03T00:57:16.478Z,0.00
2018-08-03T00:58:16.512Z,0.00
2018-08-03T00:59:16.539Z,0.00
2018-08-03T01:00:16.574Z,0.00
2018-08-03T01:01:16.609Z,0.00
2018-08-03T01:02:16.642Z,0.00
2018-08-03T01:03:16.670Z,0.00
2018-08-03T01:04:16.703Z,0.00
2018-08-03T01:05:16.735Z,0.00
2018-08-03T01:06:16.769Z,0.00
2018-08-03T01:07:16.806Z,0.00
2018-08-03T01:08:16.835Z,0.00
2018-08-03T01:09:16.866Z,0.00
2018-08-03T01:10:16.905Z,0.00
2018-08-03T01:11:16.934Z,0.00
2018-08-03T01:12:16.965Z,0.00
2018-08-03T01:13:17.001Z,0.00
2018-08-03T01:14:17.049Z,0.00
2018-08-03T01:15:17.068Z,0.00
2018-08-03T01:16:17.098Z,0.00
2018-08-03T01:17:17.132Z,0.00
2018-08-03T01:18:17.161Z,0.00
2018-08-03T01:19:17.195Z,0.00
2018-08-03T01:20:17.229Z,0.00
2018-08-03T01:21:17.259Z,0.00
2018-08-03T01:22:17.292Z,0.00
2018-08-03T01:23:17.329Z,0.00
2018-08-03T01:24:17.357Z,0.00
2018-08-03T01:25:17.389Z,0.00
2018-08-03T01:26:17.424Z,0.00
2018-08-03T01:27:17.453Z,0.00
2018-08-03T01:28:17.489Z,0.00
2018-08-03T01:29:17.519Z,0.00
2018-08-03T01:30:17.555Z,0.00
2018-08-03T01:31:17.589Z,0.00
2018-08-03T01:32:17.617Z,0.00
2018-08-03T01:33:17.649Z,0.00
2018-08-03T01:34:17.682Z,0.00
2018-08-03T01:35:17.714Z,0.00
2018-08-03T01:36:17.747Z,0.00
2018-08-03T01:37:17.782Z,0.00
2018-08-03T01:38:17.815Z,0.00
2018-08-03T01:39:17.844Z,0.00
2018-08-03T01:40:17.880Z,0.00
2018-08-03T01:41:17.910Z,0.00
2018-08-03T01:42:17.946Z,0.00
2018-08-03T01:43:17.976Z,0.00
2018-08-03T01:44:18.009Z,0.00
2018-08-03T01:45:18.043Z,0.00
2018-08-03T01:46:18.078Z,0.00
2018-08-03T01:47:18.106Z,0.00
2018-08-03T01:48:18.137Z,0.00
2018-08-03T01:49:18.170Z,0.00
2018-08-03T01:50:18.205Z,0.00
2018-08-03T01:51:18.235Z,0.00
2018-08-03T01:52:18.271Z,0.00
2018-08-03T01:53:18.302Z,0.00
2018-08-03T01:54:18.333Z,0.00
2018-08-03T01:55:18.365Z,0.00
2018-08-03T01:56:18.403Z,0.00
2018-08-03T01:57:18.433Z,0.00
2018-08-03T01:58:18.469Z,0.00
2018-08-03T01:59:18.495Z,0.00
2018-08-03T02:00:18.532Z,0.00
2018-08-03T02:01:18.562Z,0.00
2018-08-03T02:02:18.595Z,0.00
2018-08-03T02:03:18.675Z,0.00
2018-08-03T02:04:18.659Z,0.00
2018-08-03T02:05:18.690Z,0.00
2018-08-03T02:06:18.727Z,0.00
2018-08-03T02:07:18.755Z,0.00
2018-08-03T02:08:18.791Z,0.00
2018-08-03T02:09:18.823Z,0.00
2018-08-03T02:10:18.857Z,0.00
2018-08-03T02:11:18.885Z,0.00
2018-08-03T02:12:18.920Z,0.00
2018-08-03T02:13:18.950Z,0.00
2018-08-03T02:14:18.982Z,0.00
2018-08-03T02:15:19.014Z,0.00
2018-08-03T02:16:19.048Z,0.00
2018-08-03T02:17:19.097Z,0.00
2018-08-03T02:18:19.113Z,0.00
2018-08-03T02:19:19.149Z,0.00
2018-08-03T02:20:19.180Z,0.00
2018-08-03T02:21:19.212Z,0.00
2018-08-03T02:22:19.244Z,0.00
2018-08-03T02:23:19.276Z,0.00
2018-08-03T02:24:19.306Z,0.00
2018-08-03T02:25:19.339Z,0.00
2018-08-03T02:26:19.375Z,0.00
2018-08-03T02:27:19.407Z,0.00
2018-08-03T02:28:19.436Z,0.00
2018-08-03T02:29:19.469Z,0.00
2018-08-03T02:30:19.502Z,0.00
2018-08-03T02:31:19.535Z,0.00
2018-08-03T02:32:19.566Z,0.00
2018-08-03T02:33:19.600Z,0.00
2018-08-03T02:34:19.634Z,0.00
2018-08-03T02:35:19.662Z,0.00
2018-08-03T02:36:19.696Z,0.00
2018-08-03T02:37:19.730Z,0.00
2018-08-03T02:38:19.760Z,0.00
2018-08-03T02:39:19.795Z,0.00
2018-08-03T02:40:19.860Z,0.00
2018-08-03T02:41:19.860Z,0.00
2018-08-03T02:42:19.890Z,0.00
2018-08-03T02:43:19.925Z,0.00
2018-08-03T02:44:19.957Z,0.00
2018-08-03T02:45:19.987Z,0.00
2018-08-03T02:46:20.026Z,0.00
2018-08-03T02:47:20.051Z,0.00
2018-08-03T02:48:20.086Z,0.00
2018-08-03T02:49:20.116Z,0.00
2018-08-03T02:50:20.147Z,0.00
2018-08-03T02:51:20.183Z,0.00
2018-08-03T02:52:20.216Z,0.00
2018-08-03T02:53:20.247Z,0.00
2018-08-03T02:54:20.281Z,0.00
2018-08-03T02:55:20.313Z,0.00
2018-08-03T02:56:20.346Z,0.00
2018-08-03T02:57:20.374Z,0.00
2018-08-03T02:58:20.407Z,0.00
2018-08-03T02:59:20.439Z,0.00
2018-08-03T03:00:20.475Z,0.00
2018-08-03T03:01:20.504Z,0.00
2018-08-03T03:02:20.536Z,0.00
2018-08-03T03:03:20.568Z,0.00
2018-08-03T03:04:20.601Z,0.00
2018-08-03T03:05:20.632Z,0.00
2018-08-03T03:06:20.660Z,0.00
2018-08-03T03:07:20.718Z,0.00
2018-08-03T03:08:20.715Z,0.00
2018-08-03T03:09:20.741Z,0.00
2018-08-03T03:10:20.773Z,0.00
2018-08-03T03:11:20.797Z,0.00
2018-08-03T03:12:20.823Z,0.00
2018-08-03T03:13:20.854Z,0.00
2018-08-03T03:14:20.880Z,0.00
2018-08-03T03:15:20.905Z,0.00
2018-08-03T03:16:20.937Z,0.00
2018-08-03T03:17:20.960Z,0.00
2018-08-03T03:18:20.993Z,0.00
2018-08-03T03:19:21.034Z,0.00
2018-08-03T03:20:21.044Z,0.00
2018-08-03T03:21:21.072Z,0.00
2018-08-03T03:22:21.103Z,0.00
2018-08-03T03:23:21.127Z,0.00
2018-08-03T03:24:21.155Z,0.00
2018-08-03T03:25:21.180Z,0.00
2018-08-03T03:26:21.208Z,0.00
2018-08-03T03:27:21.252Z,0.00
2018-08-03T03:28:21.261Z,0.00
2018-08-03T03:29:21.289Z,0.00
2018-08-03T03:30:21.323Z,0.00
2018-08-03T03:31:21.345Z,0.00
2018-08-03T03:32:21.373Z,0.00
2018-08-03T03:33:21.429Z,0.00
2018-08-03T03:34:21.427Z,0.00
2018-08-03T03:35:21.453Z,0.00
2018-08-03T03:36:21.481Z,0.00
2018-08-03T03:37:21.507Z,0.00
2018-08-03T03:38:21.537Z,0.00
2018-08-03T03:39:21.560Z,0.00
2018-08-03T03:40:21.588Z,0.00
2018-08-03T03:41:21.615Z,0.00
2018-08-03T03:42:21.646Z,0.00
2018-08-03T03:43:21.669Z,0.00
2018-08-03T03:44:21.700Z,0.00
2018-08-03T03:45:21.727Z,0.00
2018-08-03T03:46:21.754Z,0.00
2018-08-03T03:47:21.782Z,0.00
2018-08-03T03:48:21.811Z,0.00
2018-08-03T03:49:21.834Z,0.00
2018-08-03T03:50:21.860Z,0.00
2018-08-03T03:51:21.887Z,0.00
2018-08-03T03:52:21.917Z,5.63
2018-08-03T03:53:21.944Z,5.63
2018-08-03T03:54:21.971Z,5.63
2018-08-03T03:55:21.996Z,5.63
2018-08-03T03:56:22.029Z,5.63
2018-08-03T03:57:22.049Z,5.63
2018-08-03T03:58:22.077Z,5.63
2018-08-03T03:59:22.145Z,5.63
2018-08-03T04:00:22.133Z,5.63
2018-08-03T04:01:22.160Z,5.63
2018-08-03T04:02:22.187Z,11.25
2018-08-03T04:03:22.212Z,11.25
2018-08-03T04:04:22.247Z,11.25
2018-08-03T04:05:22.269Z,11.25
2018-08-03T04:06:22.296Z,11.25
2018-08-03T04:07:22.320Z,11.25
2018-08-03T04:08:22.346Z,11.25
2018-08-03T04:09:22.372Z,16.88
2018-08-03T04:10:22.403Z,16.88
2018-08-03T04:11:22.431Z,16.88
2018-08-03T04:12:22.528Z,16.88
2018-08-03T04:13:22.487Z,16.88
2018-08-03T04:14:22.511Z,16.88
2018-08-03T04:15:22.538Z,22.50
2018-08-03T04:16:22.564Z,22.50
2018-08-03T04:17:22.591Z,22.50
2018-08-03T04:18:22.616Z,22.50
2018-08-03T04:19:22.645Z,22.50
2018-08-03T04:20:22.673Z,28.13
2018-08-03T04:21:22.697Z,28.13
2018-08-03T04:22:22.727Z,28.13
2018-08-03T04:23:22.750Z,28.13
2018-08-03T04:24:22.777Z,28.13
2018-08-03T04:25:22.808Z,33.75
2018-08-03T04:26:22.832Z,33.75
2018-08-03T04:27:22.858Z,33.75
2018-08-03T04:28:22.886Z,33.75
2018-08-03T04:29:22.913Z,33.75
2018-08-03T04:30:22.940Z,39.38
2018-08-03T04:31:22.969Z,39.38
2018-08-03T04:32:22.994Z,39.38
2018-08-03T04:33:23.026Z,39.38
2018-08-03T04:34:23.051Z,39.38
2018-08-03T04:35:23.078Z,45.00
2018-08-03T04:36:23.105Z,45.00
2018-08-03T04:37:23.129Z,45.00
2018-08-03T04:38:23.157Z,45.00
2018-08-03T04:39:23.184Z,45.00
2018-08-03T04:40:23.211Z,50.63
2018-08-03T04:41:23.239Z,50.63
2018-08-03T04:42:23.344Z,50.63
2018-08-03T04:43:23.290Z,50.63
2018-08-03T04:44:23.420Z,56.25
2018-08-03T04:45:23.346Z,56.25
2018-08-03T04:46:23.377Z,56.25
2018-08-03T04:47:23.400Z,56.25
2018-08-03T04:48:23.426Z,56.25
2018-08-03T04:49:23.455Z,61.88
2018-08-03T04:50:23.483Z,61.88
2018-08-03T04:51:23.507Z,61.88
2018-08-03T04:52:23.537Z,61.88
2018-08-03T04:53:23.561Z,61.88
2018-08-03T04:54:23.592Z,67.50
2018-08-03T04:55:23.615Z,67.50
2018-08-03T04:56:23.645Z,67.50
2018-08-03T04:57:23.670Z,67.50
2018-08-03T04:58:23.700Z,73.13
2018-08-03T04:59:23.724Z,73.13
2018-08-03T05:00:23.756Z,73.13
2018-08-03T05:01:23.781Z,73.13
2018-08-03T05:02:23.807Z,78.75
2018-08-03T05:03:23.835Z,78.75
2018-08-03T05:04:23.859Z,78.75
2018-08-03T05:05:23.889Z,78.75
2018-08-03T05:06:23.915Z,84.38
2018-08-03T05:07:23.941Z,84.38
2018-08-03T05:08:23.968Z,84.38
2018-08-03T05:09:23.999Z,84.38
2018-08-03T05:10:24.027Z,90.00
2018-08-03T05:11:24.053Z,90.00
2018-08-03T05:12:24.077Z,90.00
2018-08-03T05:13:24.105Z,90.00
2018-08-03T05:14:24.134Z,95.63
2018-08-03T05:15:24.172Z,95.63
2018-08-03T05:16:24.190Z,101.25
2018-08-03T05:17:24.217Z,101.25
2018-08-03T05:18:24.244Z,101.25
2018-08-03T05:19:24.269Z,101.25
2018-08-03T05:20:24.296Z,101.25
2018-08-03T05:21:24.336Z,101.25
2018-08-03T05:22:24.352Z,106.88
2018-08-03T05:23:24.383Z,106.88
2018-08-03T05:24:24.408Z,106.88
2018-08-03T05:25:24.433Z,106.88
2018-08-03T05:26:24.466Z,112.50
2018-08-03T05:27:24.488Z,112.50
2018-08-03T05:28:24.519Z,118.13
2018-08-03T05:29:24.545Z,140.63
2018-08-03T05:30:24.633Z,151.88
2018-08-03T05:31:24.600Z,157.50
2018-08-03T05:32:24.628Z,157.50
2018-08-03T05:33:24.653Z,163.13
2018-08-03T05:34:24.683Z,163.13
2018-08-03T05:35:24.761Z,168.75
2018-08-03T05:36:24.808Z,174.38
2018-08-03T05:37:24.767Z,174.38
2018-08-03T05:38:24.793Z,180.00
2018-08-03T05:39:24.820Z,185.63
2018-08-03T05:40:24.848Z,185.63
2018-08-03T05:41:24.874Z,185.63
2018-08-03T05:42:24.920Z,191.25
2018-08-03T05:43:24.931Z,191.25
2018-08-03T05:44:24.959Z,196.88
2018-08-03T05:45:24.990Z,196.88
2018-08-03T05:46:25.015Z,196.88
2018-08-03T05:47:25.045Z,202.50
2018-08-03T05:48:25.072Z,202.50
2018-08-03T05:49:25.105Z,208.13
2018-08-03T05:50:25.129Z,208.13
2018-08-03T05:51:25.156Z,213.75
2018-08-03T05:52:25.249Z,219.38
2018-08-03T05:53:25.216Z,225.00
2018-08-03T05:54:25.241Z,225.00
2018-08-03T05:55:25.271Z,230.63
2018-08-03T05:56:25.301Z,236.25
2018-08-03T05:57:25.327Z,241.88
2018-08-03T05:58:25.360Z,253.13
2018-08-03T05:59:25.384Z,253.13
2018-08-03T06:00:25.413Z,258.75
2018-08-03T06:01:25.445Z,270.00
2018-08-03T06:02:25.474Z,281.25
2018-08-03T06:03:25.522Z,298.13
2018-08-03T06:04:25.532Z,315.00
2018-08-03T06:05:28.184Z,337.50
2018-08-03T06:06:25.592Z,365.63
2018-08-03T06:07:25.624Z,427.50
2018-08-03T06:08:25.687Z,534.38
2018-08-03T06:09:25.696Z,618.75
2018-08-03T06:10:25.737Z,624.38
2018-08-03T06:11:25.761Z,607.50
2018-08-03T06:12:25.799Z,601.88
2018-08-03T06:13:25.833Z,624.38
2018-08-03T06:14:25.868Z,652.50
2018-08-03T06:15:25.898Z,725.63
2018-08-03T06:16:25.936Z,798.75
2018-08-03T06:17:25.969Z,871.88
2018-08-03T06:18:26.007Z,1001.25
2018-08-03T06:19:26.041Z,1085.63
2018-08-03T06:20:26.076Z,1113.75
2018-08-03T06:21:26.111Z,1125.00
2018-08-03T06:22:26.143Z,1209.38
2018-08-03T06:23:26.178Z,1293.75
2018-08-03T06:24:26.216Z,1209.38
2018-08-03T06:25:26.257Z,1153.13
2018-08-03T06:26:26.286Z,1102.50
2018-08-03T06:27:26.320Z,1035.00
2018-08-03T06:28:26.387Z,995.63
2018-08-03T06:29:26.421Z,967.50
2018-08-03T06:30:26.428Z,916.88
2018-08-03T06:31:26.465Z,860.63
2018-08-03T06:32:26.499Z,843.75
2018-08-03T06:33:26.538Z,849.38
2018-08-03T06:34:26.574Z,815.63
2018-08-03T06:35:26.607Z,770.63
2018-08-03T06:36:26.644Z,742.50
2018-08-03T06:37:26.680Z,787.50
2018-08-03T06:38:26.717Z,843.75
2018-08-03T06:39:26.754Z,804.38
2018-08-03T06:40:26.796Z,742.50
2018-08-03T06:41:26.829Z,736.88
2018-08-03T06:42:26.861Z,759.38
2018-08-03T06:43:26.903Z,798.75
2018-08-03T06:44:26.937Z,804.38
2018-08-03T06:45:26.976Z,787.50
2018-08-03T06:46:27.011Z,736.88
2018-08-03T06:47:27.049Z,703.13
2018-08-03T06:48:27.125Z,680.63
2018-08-03T06:49:27.122Z,697.50
2018-08-03T06:50:27.159Z,725.63
2018-08-03T06:51:27.196Z,720.00
2018-08-03T06:52:27.234Z,691.88
2018-08-03T06:53:27.271Z,680.63
2018-08-03T06:54:27.309Z,703.13
2018-08-03T06:55:27.346Z,714.38
2018-08-03T06:56:27.388Z,714.38
2018-08-03T06:57:27.444Z,714.38
2018-08-03T06:58:27.460Z,703.13
2018-08-03T06:59:27.499Z,697.50
2018-08-03T07:00:27.551Z,714.38
2018-08-03T07:01:27.576Z,708.75
2018-08-03T07:02:27.610Z,720.00
2018-08-03T07:03:27.647Z,731.25
2018-08-03T07:04:27.720Z,776.25
2018-08-03T07:05:27.726Z,798.75
2018-08-03T07:06:27.763Z,765.00
2018-08-03T07:07:27.799Z,742.50
2018-08-03T07:08:27.877Z,776.25
2018-08-03T07:09:27.875Z,793.13
2018-08-03T07:10:27.920Z,826.88
2018-08-03T07:11:27.953Z,860.63
2018-08-03T07:12:27.994Z,871.88
2018-08-03T07:13:28.035Z,860.63
2018-08-03T07:14:28.080Z,888.75
2018-08-03T07:15:31.741Z,956.25
2018-08-03T07:16:28.143Z,1035.00
2018-08-03T07:17:28.183Z,1102.50
2018-08-03T07:18:28.217Z,1113.75
2018-08-03T07:19:28.262Z,1147.50
2018-08-03T07:20:28.419Z,1226.25
2018-08-03T07:21:28.336Z,1170.00
2018-08-03T07:22:28.374Z,1018.13
2018-08-03T07:23:28.412Z,871.88
2018-08-03T07:24:28.452Z,787.50
2018-08-03T07:25:28.486Z,776.25
2018-08-03T07:26:29.337Z,753.75
2018-08-03T07:27:28.568Z,714.38
2018-08-03T07:28:31.281Z,691.88
2018-08-03T07:29:28.633Z,663.75
2018-08-03T07:30:28.672Z,658.13
2018-08-03T07:32:32.380Z,652.50
2018-08-03T07:33:29.388Z,641.25
2018-08-03T07:34:28.821Z,641.25
2018-08-03T07:35:28.851Z,646.88
2018-08-03T07:36:28.888Z,646.88
2018-08-03T07:37:29.024Z,652.50
2018-08-03T07:38:28.959Z,641.25
2018-08-03T07:39:28.992Z,630.00
2018-08-03T07:40:29.027Z,630.00
2018-08-03T07:41:29.060Z,630.00
2018-08-03T07:42:29.096Z,630.00
2018-08-03T07:43:29.196Z,630.00
2018-08-03T07:44:29.175Z,641.25
2018-08-03T07:45:29.199Z,652.50
2018-08-03T07:46:29.237Z,714.38
2018-08-03T07:47:29.273Z,967.50
2018-08-03T07:50:29.381Z,1434.38
2018-08-03T07:51:29.421Z,1507.50
2018-08-03T07:52:29.470Z,1479.38
2018-08-03T07:53:29.500Z,1490.63
2018-08-03T07:55:37.973Z,1530.00
2018-08-03T07:56:37.204Z,1535.63
2018-08-03T08:01:37.422Z,1642.50
2018-08-03T08:02:40.074Z,1653.75
2018-08-03T08:03:37.486Z,1648.13
2018-08-03T08:05:41.597Z,1687.50
2018-08-03T08:07:33.611Z,1704.38
2018-08-03T08:08:34.320Z,1676.25
2018-08-03T08:09:30.300Z,1687.50
2018-08-03T08:10:30.297Z,1698.75
2018-08-03T08:11:30.323Z,1642.50
2018-08-03T08:12:30.360Z,1665.00
2018-08-03T08:13:30.398Z,1676.25
2018-08-03T08:14:30.434Z,1726.88
2018-08-03T08:15:30.478Z,1760.63
2018-08-03T08:16:30.506Z,1766.25
2018-08-03T08:17:30.539Z,1749.38
2018-08-03T08:18:30.581Z,1743.75
2018-08-03T08:19:30.611Z,1738.13
2018-08-03T08:20:30.651Z,1755.00
2018-08-03T08:21:30.689Z,1715.63
2018-08-03T08:22:30.721Z,1681.88
2018-08-03T08:23:30.757Z,1721.25
2018-08-03T08:24:30.797Z,1749.38
2018-08-03T08:25:30.832Z,1743.75
2018-08-03T08:26:30.869Z,1828.13
2018-08-03T08:27:30.904Z,1777.50
2018-08-03T08:28:30.939Z,1771.88
2018-08-03T08:29:30.979Z,1856.25
2018-08-03T08:30:31.015Z,1873.13
2018-08-03T08:31:31.062Z,1845.00
2018-08-03T08:32:31.088Z,1867.50
2018-08-03T08:33:31.123Z,1873.13
2018-08-03T08:34:31.162Z,1867.50
2018-08-03T08:35:31.198Z,1878.75
2018-08-03T08:36:31.235Z,1861.88
2018-08-03T08:37:31.272Z,1839.38
2018-08-03T08:38:31.306Z,1833.75
2018-08-03T08:39:31.341Z,1845.00
2018-08-03T08:40:31.379Z,1833.75
2018-08-03T08:41:31.415Z,1839.38
2018-08-03T08:42:31.454Z,1839.38
2018-08-03T08:43:31.567Z,1867.50
2018-08-03T08:44:31.527Z,1884.38
2018-08-03T08:45:31.563Z,1884.38
2018-08-03T08:46:31.629Z,1856.25
2018-08-03T08:47:31.636Z,1856.25
2018-08-03T08:48:31.676Z,1873.13
2018-08-03T08:49:31.712Z,1828.13
2018-08-03T08:50:31.751Z,1811.25
2018-08-03T08:51:31.788Z,1856.25
2018-08-03T08:52:31.822Z,1890.00
2018-08-03T08:53:31.859Z,1929.38
2018-08-03T08:54:31.898Z,1946.25
2018-08-03T08:55:31.935Z,1929.38
2018-08-03T08:56:31.971Z,1867.50
2018-08-03T08:57:32.012Z,1856.25
2018-08-03T08:58:32.049Z,1878.75
2018-08-03T08:59:32.111Z,1873.13
2018-08-03T09:00:32.123Z,1873.13
2018-08-03T09:01:32.161Z,1940.63
2018-08-03T09:02:32.199Z,1957.50
2018-08-03T09:03:32.234Z,1918.13
2018-08-03T09:04:32.274Z,1906.88
2018-08-03T09:05:32.312Z,1968.75
2018-08-03T09:06:32.351Z,1929.38
2018-08-03T09:07:32.492Z,1873.13
2018-08-03T09:08:32.422Z,1940.63
2018-08-03T09:09:32.459Z,1946.25
2018-08-03T09:10:32.497Z,1946.25
2018-08-03T09:11:32.534Z,1929.38
2018-08-03T09:12:32.574Z,1963.13
2018-08-03T09:13:32.612Z,1985.63
2018-08-03T09:14:32.651Z,1974.38
2018-08-03T09:15:32.688Z,1996.88
2018-08-03T09:16:32.726Z,2030.63
2018-08-03T09:17:32.764Z,2047.50
2018-08-03T09:18:32.825Z,2081.25
2018-08-03T09:19:32.836Z,2058.75
2018-08-03T09:20:32.877Z,2030.63
2018-08-03T09:21:32.913Z,2041.88
2018-08-03T09:22:32.951Z,2030.63
2018-08-03T09:23:32.990Z,2075.63
2018-08-03T09:24:33.076Z,2058.75
2018-08-03T09:25:33.068Z,2064.38
2018-08-03T09:26:33.111Z,1991.25
2018-08-03T09:27:33.143Z,2019.38
2018-08-03T09:28:33.212Z,2030.63
2018-08-03T09:29:33.219Z,2058.75
2018-08-03T09:30:33.258Z,2086.88
2018-08-03T09:31:33.292Z,2098.13
2018-08-03T09:32:33.333Z,2086.88
2018-08-03T09:33:33.368Z,2075.63
2018-08-03T09:34:33.408Z,2109.38
2018-08-03T09:35:33.447Z,2103.75
2018-08-03T09:36:33.543Z,2081.25
2018-08-03T09:37:33.520Z,2086.88
2018-08-03T09:38:33.559Z,2115.00
2018-08-03T09:39:33.596Z,2154.38
2018-08-03T09:40:33.635Z,2053.13
2018-08-03T09:41:33.673Z,2058.75
2018-08-03T09:42:33.711Z,2075.63
2018-08-03T09:43:33.749Z,2143.13
2018-08-03T09:44:33.789Z,2131.88
2018-08-03T09:45:33.830Z,2036.25
2018-08-03T09:46:33.864Z,2047.50
2018-08-03T09:47:33.905Z,2103.75
2018-08-03T09:48:33.941Z,2115.00
2018-08-03T09:49:33.981Z,2131.88
2018-08-03T09:50:34.020Z,2086.88
2018-08-03T09:51:34.058Z,2120.63
2018-08-03T09:52:34.094Z,2086.88
2018-08-03T09:53:34.135Z,2075.63
2018-08-03T09:54:34.243Z,2030.63
2018-08-03T09:55:34.212Z,2036.25
2018-08-03T09:56:34.249Z,2081.25
2018-08-03T09:57:34.289Z,2103.75
2018-08-03T09:58:34.325Z,2098.13
2018-08-03T09:59:34.363Z,2103.75
2018-08-03T10:00:34.405Z,2103.75
2018-08-03T10:01:34.440Z,2120.63
2018-08-03T10:02:34.481Z,2098.13
2018-08-03T10:03:34.518Z,2086.88
2018-08-03T10:04:34.560Z,2081.25
2018-08-03T10:05:34.596Z,2103.75
2018-08-03T10:06:34.635Z,2154.38
2018-08-03T10:07:34.677Z,2160.00
2018-08-03T10:08:34.709Z,2154.38
2018-08-03T10:09:34.749Z,2160.00
2018-08-03T10:10:34.788Z,2154.38
2018-08-03T10:11:34.827Z,2137.50
2018-08-03T10:12:34.983Z,2137.50
2018-08-03T10:13:34.904Z,2131.88
2018-08-03T10:14:34.944Z,2115.00
2018-08-03T10:15:35.037Z,2143.13
2018-08-03T10:16:35.022Z,2143.13
2018-08-03T10:17:35.059Z,2081.25
2018-08-03T10:18:35.099Z,2058.75
2018-08-03T10:19:35.137Z,2025.00
2018-08-03T10:20:35.174Z,1906.88
2018-08-03T10:21:35.213Z,1946.25
2018-08-03T10:22:35.251Z,2008.13
2018-08-03T10:23:35.289Z,2041.88
2018-08-03T10:24:35.330Z,2041.88
2018-08-03T10:25:35.366Z,2070.00
2018-08-03T10:26:35.409Z,2081.25
2018-08-03T10:27:35.446Z,2053.13
2018-08-03T10:28:35.482Z,2070.00
2018-08-03T10:29:35.559Z,2036.25
2018-08-03T10:30:35.565Z,1968.75
2018-08-03T10:31:35.597Z,2025.00
2018-08-03T10:32:35.639Z,2019.38
2018-08-03T10:33:35.677Z,1991.25
2018-08-03T10:34:35.719Z,2041.88
2018-08-03T10:35:35.754Z,2070.00
2018-08-03T10:36:35.793Z,2030.63
2018-08-03T10:37:35.831Z,2019.38
2018-08-03T10:38:35.870Z,2019.38
2018-08-03T10:39:35.905Z,2008.13
2018-08-03T10:40:35.945Z,2081.25
2018-08-03T10:41:35.984Z,2053.13
2018-08-03T10:42:36.024Z,1996.88
2018-08-03T10:43:36.062Z,1923.75
2018-08-03T10:44:36.100Z,1940.63
2018-08-03T10:45:36.139Z,2030.63
2018-08-03T10:46:36.279Z,2086.88
2018-08-03T10:47:36.213Z,2070.00
2018-08-03T10:48:36.270Z,2053.13
2018-08-03T10:49:36.290Z,2041.88
2018-08-03T10:50:36.330Z,2025.00
2018-08-03T10:51:36.370Z,2002.50
2018-08-03T10:52:36.408Z,1946.25
2018-08-03T10:53:36.465Z,1974.38
2018-08-03T10:54:36.490Z,1991.25
2018-08-03T10:55:36.524Z,1963.13
2018-08-03T10:56:36.562Z,1878.75
2018-08-03T10:57:36.601Z,1839.38
2018-08-03T10:58:36.639Z,1839.38
2018-08-03T10:59:36.676Z,1771.88
2018-08-03T11:00:36.719Z,1811.25
2018-08-03T11:01:36.780Z,1816.88
2018-08-03T11:02:36.794Z,1805.63
2018-08-03T11:03:36.834Z,1800.00
2018-08-03T11:04:36.871Z,1231.88
2018-08-03T11:05:36.912Z,1023.75
2018-08-03T11:06:36.950Z,821.25
2018-08-03T11:07:36.995Z,1552.50
2018-08-03T11:08:37.029Z,1777.50
2018-08-03T11:09:37.067Z,1659.38
2018-08-03T11:10:37.105Z,472.50
2018-08-03T11:11:37.148Z,455.63
2018-08-03T11:12:37.181Z,461.25
2018-08-03T11:13:37.284Z,483.75
2018-08-03T11:14:37.263Z,1023.75
2018-08-03T11:15:37.314Z,1400.63
2018-08-03T11:16:37.336Z,1642.50
2018-08-03T11:17:37.378Z,1693.13
2018-08-03T11:18:37.415Z,1704.38
2018-08-03T11:19:37.451Z,1681.88
2018-08-03T11:20:37.492Z,1681.88
2018-08-03T11:21:37.526Z,1659.38
2018-08-03T11:22:37.568Z,1665.00
2018-08-03T11:23:37.603Z,1603.13
2018-08-03T11:24:37.643Z,1614.38
2018-08-03T11:25:37.681Z,1614.38
2018-08-03T11:26:37.720Z,1541.25
2018-08-03T11:27:37.757Z,1378.13
2018-08-03T11:28:37.796Z,1186.88
2018-08-03T11:29:37.888Z,1018.13
2018-08-03T11:30:37.872Z,900.00
2018-08-03T11:31:37.907Z,843.75
2018-08-03T11:32:37.946Z,826.88
2018-08-03T11:33:37.986Z,815.63
2018-08-03T11:34:38.025Z,804.38
2018-08-03T11:35:38.061Z,804.38
2018-08-03T11:36:38.258Z,793.13
2018-08-03T11:37:38.142Z,798.75
2018-08-03T11:38:38.181Z,793.13
2018-08-03T11:39:38.215Z,787.50
2018-08-03T11:40:38.258Z,793.13
2018-08-03T11:41:38.295Z,815.63
2018-08-03T11:42:38.336Z,826.88
2018-08-03T11:43:38.371Z,860.63
2018-08-03T11:44:38.410Z,883.13
2018-08-03T11:45:38.449Z,905.63
2018-08-03T11:46:38.488Z,956.25
2018-08-03T11:47:38.530Z,1029.38
2018-08-03T11:48:38.567Z,1141.88
2018-08-03T11:49:38.605Z,1226.25
2018-08-03T11:50:38.649Z,1220.63
2018-08-03T11:51:38.683Z,1153.13
2018-08-03T11:52:38.725Z,1080.00
2018-08-03T11:53:38.763Z,984.38
2018-08-03T11:54:38.804Z,928.13
2018-08-03T11:55:38.840Z,905.63
2018-08-03T11:56:38.882Z,888.75
2018-08-03T11:57:38.921Z,843.75
2018-08-03T11:58:38.960Z,804.38
2018-08-03T11:59:38.998Z,793.13
2018-08-03T12:00:39.040Z,781.88
2018-08-03T12:01:39.075Z,759.38
2018-08-03T12:02:39.114Z,742.50
2018-08-03T12:03:39.152Z,725.63
2018-08-03T12:04:39.192Z,731.25
2018-08-03T12:05:39.232Z,731.25
2018-08-03T12:06:39.414Z,725.63
2018-08-03T12:07:39.310Z,714.38
2018-08-03T12:08:39.348Z,703.13
2018-08-03T12:09:39.390Z,686.25
2018-08-03T12:10:39.427Z,669.38
2018-08-03T12:11:39.466Z,669.38
2018-08-03T12:12:39.508Z,663.75
2018-08-03T12:13:39.544Z,675.00
2018-08-03T12:14:39.583Z,663.75
2018-08-03T12:15:39.623Z,652.50
2018-08-03T12:16:39.663Z,646.88
2018-08-03T12:17:39.700Z,635.63
2018-08-03T12:18:39.742Z,641.25
2018-08-03T12:19:39.780Z,624.38
2018-08-03T12:20:39.819Z,630.00
2018-08-03T12:21:39.855Z,601.88
2018-08-03T12:22:39.896Z,579.38
2018-08-03T12:23:39.953Z,596.25
2018-08-03T12:24:39.971Z,590.63
2018-08-03T12:25:40.011Z,573.75
2018-08-03T12:26:40.052Z,579.38
2018-08-03T12:27:40.089Z,579.38
2018-08-03T12:28:40.128Z,585.00
2018-08-03T12:29:40.163Z,579.38
2018-08-03T12:30:40.205Z,579.38
2018-08-03T12:31:40.313Z,579.38
2018-08-03T12:32:40.278Z,579.38
2018-08-03T12:33:40.317Z,590.63
2018-08-03T12:34:40.359Z,585.00
2018-08-03T12:35:40.395Z,585.00
2018-08-03T12:36:40.435Z,596.25
2018-08-03T12:37:40.472Z,596.25
2018-08-03T12:38:40.512Z,601.88
2018-08-03T12:39:40.549Z,596.25
2018-08-03T12:40:40.584Z,596.25
2018-08-03T12:41:40.626Z,596.25
2018-08-03T12:42:40.661Z,585.00
2018-08-03T12:43:40.701Z,596.25
2018-08-03T12:44:40.739Z,601.88
2018-08-03T12:45:40.776Z,601.88
2018-08-03T12:46:40.814Z,601.88
2018-08-03T12:47:40.854Z,618.75
2018-08-03T12:48:40.893Z,618.75